Time;durP1;ratioP1;P1;durP2;ratioP2;P2;SDS_P1;SDS_P2;PMS_P1;PMS_P2;Temp;Humidity;BMP_temperature;BMP_pressure;BME280_temperature;BME280_humidity;BME280_pressure;Samples;Min_cycle;Max_cycle;Signal;HPM_P1;HPM_P2
2021/06/28 00:01:06;;;;;;;;;10.00;9.50;;;;;23.28;54.15;100846.47;5097158;27;45283;-70
2021/06/28 00:03:32;;;;;;;;;8.75;8.75;;;;;23.27;54.13;100848.25;5097219;27;45437;-68
2021/06/28 00:05:57;;;;;;;;;9.25;8.00;;;;;23.28;54.07;100849.94;5095309;27;45782;-70
2021/06/28 00:08:23;;;;;;;;;10.00;8.50;;;;;23.28;54.15;100841.19;5097104;27;45284;-71
2021/06/28 00:10:48;;;;;;;;;8.00;6.25;;;;;23.28;54.49;100841.19;5096813;27;45463;-65
2021/06/28 00:13:14;;;;;;;;;8.50;8.50;;;;;23.29;54.50;100840.25;5097131;27;45503;-70
2021/06/28 00:15:39;;;;;;;;;7.25;7.00;;;;;23.27;54.38;100840.31;5129842;27;46996;-69
2021/06/28 00:18:07;;;;;;;;;9.00;9.00;;;;;23.27;54.29;100839.50;5096662;27;45464;-71
2021/06/28 00:20:33;;;;;;;;;7.75;7.75;;;;;23.28;54.21;100841.19;5096826;27;45355;-71
2021/06/28 00:22:59;;;;;;;;;8.00;7.50;;;;;23.22;54.44;100829.22;5096916;27;45624;-68
2021/06/28 00:25:25;;;;;;;;;9.50;8.00;;;;;23.26;54.12;100830.69;5099704;27;46618;-55
2021/06/28 00:27:51;;;;;;;;;6.50;6.50;;;;;23.28;54.28;100827.97;5100553;27;45515;-70
2021/06/28 00:30:19;;;;;;;;;10.00;9.00;;;;;23.27;54.20;100821.81;5100363;27;45405;-71
2021/06/28 00:32:46;;;;;;;;;5.50;5.50;;;;;23.27;54.69;100819.16;5100421;27;45285;-70
2021/06/28 00:35:12;;;;;;;;;13.25;8.75;;;;;23.27;54.28;100810.41;5099956;27;45486;-70
2021/06/28 00:37:38;;;;;;;;;6.50;6.50;;;;;23.27;54.26;100805.13;5100114;27;45412;-69
2021/06/28 00:40:06;;;;;;;;;7.50;6.75;;;;;23.27;53.99;100792.72;5099863;27;45373;-70
2021/06/28 00:42:32;;;;;;;;;8.00;6.25;;;;;23.24;54.40;100786.81;5100301;27;45286;-50
2021/06/28 00:44:57;;;;;;;;;8.25;7.00;;;;;23.26;54.22;100780.44;5099893;27;46418;-63
2021/06/28 00:47:23;;;;;;;;;7.00;7.00;;;;;23.26;54.41;100776.97;5100323;27;45260;-55
2021/06/28 00:49:48;;;;;;;;;5.50;4.50;;;;;23.26;54.43;100769.03;5099736;27;45602;-47
2021/06/28 00:52:15;;;;;;;;;8.50;8.50;;;;;23.24;54.37;100771.81;5100186;27;45573;-47
2021/06/28 00:54:41;;;;;;;;;7.50;7.50;;;;;23.25;54.55;100776.16;5099730;27;46387;-53
2021/06/28 00:57:07;;;;;;;;;7.00;7.00;;;;;23.27;54.10;100778.66;5099722;27;45238;-52
2021/06/28 00:59:34;;;;;;;;;6.25;6.25;;;;;23.26;54.55;100763.75;5099942;27;45247;-47
2021/06/28 01:02:03;;;;;;;;;8.50;6.75;;;;;23.25;54.47;100755.00;5100094;27;45421;-48
2021/06/28 01:04:30;;;;;;;;;6.50;5.00;;;;;23.25;54.25;100757.63;5099544;27;47091;-61
2021/06/28 01:06:56;;;;;;;;;6.25;6.00;;;;;23.24;54.34;100761.22;5100127;27;45777;-48
2021/06/28 01:09:22;;;;;;;;;6.75;6.75;;;;;23.25;54.41;100751.47;5099713;27;45249;-51
2021/06/28 01:11:49;;;;;;;;;7.00;5.75;;;;;23.24;54.84;100741.84;5100094;27;45635;-57
2021/06/28 01:14:15;;;;;;;;;7.00;7.00;;;;;23.20;54.30;100729.81;5099356;27;46611;-54
2021/06/28 01:16:41;;;;;;;;;6.00;6.00;;;;;23.23;54.51;100721.66;5132557;27;45819;-58
2021/06/28 01:19:08;;;;;;;;;5.50;5.50;;;;;23.24;54.68;100716.28;5099677;27;45595;-61
2021/06/28 01:21:34;;;;;;;;;6.00;5.25;;;;;23.24;54.96;100702.19;5133130;27;45507;-53
2021/06/28 01:23:59;;;;;;;;;8.00;8.00;;;;;23.22;54.81;100702.31;5099504;27;46381;-60
2021/06/28 01:26:25;;;;;;;;;6.25;6.25;;;;;23.23;54.59;100729.59;5099960;27;45262;-65
2021/06/28 01:28:51;;;;;;;;;7.75;5.50;;;;;23.25;54.66;100746.19;5099520;27;45351;-67
2021/06/28 01:31:17;;;;;;;;;5.75;5.25;;;;;23.24;54.68;100752.44;5099493;27;45527;-62
2021/06/28 01:33:42;;;;;;;;;5.00;5.00;;;;;23.23;54.63;100759.53;5099158;27;45470;-65
2021/06/28 01:36:08;;;;;;;;;7.00;7.00;;;;;23.22;54.62;100773.69;5097066;27;45295;-69
2021/06/28 01:38:34;;;;;;;;;6.00;6.00;;;;;23.22;54.88;100780.78;5099202;27;45506;-70
2021/06/28 01:40:59;;;;;;;;;6.25;6.25;;;;;23.24;54.67;100785.03;5099327;27;45408;-59
2021/06/28 01:43:25;;;;;;;;;7.00;7.00;;;;;23.24;54.93;100786.81;5099308;27;46572;-61
2021/06/28 01:45:52;;;;;;;;;7.25;6.50;;;;;23.24;54.82;100789.44;5098976;27;45304;-60
2021/06/28 01:48:17;;;;;;;;;6.00;6.00;;;;;23.24;54.56;100794.75;5099099;27;45440;-62
2021/06/28 01:50:43;;;;;;;;;5.00;5.00;;;;;23.25;54.77;100793.78;5099132;27;45424;-67
2021/06/28 01:53:09;;;;;;;;;7.00;6.00;;;;;23.21;54.56;100768.50;5098706;27;45480;-70
2021/06/28 01:55:37;;;;;;;;;5.75;5.75;;;;;23.25;54.54;100767.34;5132018;27;45326;-69
2021/06/28 01:58:04;;;;;;;;;6.00;6.00;;;;;23.25;54.75;100767.34;5099143;27;45308;-68
2021/06/28 02:00:53;;;;;;;;;5.00;5.00;;;;;23.25;54.61;100770.84;5099372;27;45592;-54
2021/06/28 02:03:20;;;;;;;;;6.50;4.75;;;;;23.25;54.37;100780.56;5098681;27;47026;-70
2021/06/28 02:05:56;;;;;;;;;5.00;5.00;;;;;23.25;54.67;100796.44;5098742;27;45243;-48
2021/06/28 02:08:23;;;;;;;;;5.50;5.50;;;;;23.24;54.66;100795.59;5098694;27;45258;-51
2021/06/28 02:10:55;;;;;;;;;5.00;5.00;;;;;23.24;54.98;100802.66;5098766;27;45511;-55
2021/06/28 02:13:23;;;;;;;;;5.25;5.00;;;;;23.23;54.89;100790.41;5098546;27;45345;-47
2021/06/28 02:15:50;;;;;;;;;7.00;5.00;;;;;23.24;54.56;100787.66;5098575;27;45368;-55
2021/06/28 02:18:15;;;;;;;;;6.00;6.00;;;;;23.24;54.25;100776.22;5098724;27;45419;-50
2021/06/28 02:20:41;;;;;;;;;5.00;5.00;;;;;23.23;54.31;100766.59;5098847;27;45484;-63
2021/06/28 02:23:26;;;;;;;;;7.25;6.00;;;;;23.20;54.21;100766.84;5098348;27;45446;-70
2021/06/28 02:25:55;;;;;;;;;4.75;4.75;;;;;23.22;54.23;100771.06;5098369;27;45815;-60
2021/06/28 02:28:21;;;;;;;;;3.75;3.75;;;;;23.21;54.40;100750.00;5098571;27;45342;-70
2021/06/28 02:30:47;;;;;;;;;0.25;0.25;;;;;23.21;54.27;100742.06;5098467;27;45335;-70
2021/06/28 02:33:12;;;;;;;;;4.00;4.00;;;;;23.19;54.39;100738.66;5098143;27;45255;-70
2021/06/28 02:35:38;;;;;;;;;4.75;4.75;;;;;23.20;54.15;100737.75;5131436;27;45321;-71
2021/06/28 02:38:04;;;;;;;;;2.75;2.75;;;;;23.17;54.22;100750.19;5098120;27;45226;-70
2021/06/28 02:40:29;;;;;;;;;4.25;4.25;;;;;23.17;53.99;100766.03;5098799;27;45343;-64
2021/06/28 02:42:55;;;;;;;;;5.75;3.75;;;;;23.19;54.32;100780.97;5098045;27;45600;-70
2021/06/28 02:45:20;;;;;;;;;3.00;3.00;;;;;23.20;53.95;100787.97;5097995;27;45437;-71
2021/06/28 02:47:45;;;;;;;;;3.25;3.25;;;;;23.17;53.83;100784.56;5095639;27;45330;-70
2021/06/28 02:50:13;;;;;;;;;4.00;3.00;;;;;23.19;54.01;100791.53;5098098;27;45480;-66
2021/06/28 02:52:40;;;;;;;;;3.75;3.75;;;;;23.18;53.93;100801.25;5097737;27;47068;-70
2021/06/28 02:55:07;;;;;;;;;3.00;3.00;;;;;23.20;53.81;100803.84;5097902;27;45691;-70
2021/06/28 02:57:33;;;;;;;;;3.00;2.25;;;;;23.20;53.95;100819.72;5097979;27;45398;-61
2021/06/28 02:59:59;;;;;;;;;2.00;2.00;;;;;23.19;53.76;100828.56;5098395;27;45449;-70
2021/06/28 03:02:25;;;;;;;;;2.00;2.00;;;;;23.20;54.13;100814.41;5097686;27;46286;-61
2021/06/28 03:04:50;;;;;;;;;4.00;4.00;;;;;23.20;53.81;100793.28;5097687;27;45312;-48
2021/06/28 03:07:15;;;;;;;;;2.00;2.00;;;;;23.17;53.95;100784.56;5097851;27;45391;-51
2021/06/28 03:09:41;;;;;;;;;3.00;3.00;;;;;23.19;53.52;100786.25;5097799;27;45425;-60
2021/06/28 03:12:07;;;;;;;;;4.50;3.75;;;;;23.20;53.62;100795.91;5097482;27;46346;-64
2021/06/28 03:14:32;;;;;;;;;5.00;3.00;;;;;23.20;53.85;100795.91;5097813;27;45308;-62
2021/06/28 03:16:57;;;;;;;;;2.00;2.00;;;;;23.17;53.60;100773.97;5097754;27;45313;-58
2021/06/28 03:19:23;;;;;;;;;4.75;4.75;;;;;23.17;54.04;100773.97;5097954;27;45334;-71
2021/06/28 03:21:48;;;;;;;;;3.00;3.00;;;;;23.18;53.35;100774.81;5097311;27;45382;-68
2021/06/28 03:24:13;;;;;;;;;2.00;2.00;;;;;23.17;53.78;100779.28;5096121;27;45406;-57
2021/06/28 03:26:39;;;;;;;;;3.75;2.00;;;;;23.16;53.49;100756.41;5097581;27;45325;-53
2021/06/28 03:29:04;;;;;;;;;4.50;3.50;;;;;23.16;53.57;100729.97;5097661;27;45523;-50
2021/06/28 03:31:32;;;;;;;;;3.00;3.00;;;;;23.15;53.75;100727.47;5097566;27;45413;-56
2021/06/28 03:33:58;;;;;;;;;2.75;2.00;;;;;23.15;53.98;100751.25;5095532;27;45582;-55
2021/06/28 03:36:23;;;;;;;;;3.75;3.75;;;;;23.16;53.62;100758.19;5097355;27;45438;-47
2021/06/28 03:38:49;;;;;;;;;3.00;2.00;;;;;23.17;53.63;100751.97;5097489;27;45532;-46
2021/06/28 03:41:14;;;;;;;;;2.50;2.50;;;;;23.15;53.75;100744.16;5097158;27;45412;-66
2021/06/28 03:43:39;;;;;;;;;2.25;2.25;;;;;23.16;53.46;100761.72;5097139;27;45284;-53
2021/06/28 03:46:05;;;;;;;;;4.50;2.00;;;;;23.16;53.54;100758.19;5097476;27;45368;-50
2021/06/28 03:48:30;;;;;;;;;1.25;1.25;;;;;23.16;53.42;100759.06;5097865;27;45316;-61
2021/06/28 03:50:56;;;;;;;;;1.25;1.25;;;;;23.16;53.53;100755.56;5097009;27;45428;-62
2021/06/28 03:53:21;;;;;;;;;2.00;2.00;;;;;23.15;53.44;100744.16;5097164;27;45421;-60
2021/06/28 03:55:47;;;;;;;;;3.00;2.00;;;;;23.15;53.71;100757.38;5097314;27;45378;-52
2021/06/28 03:58:12;;;;;;;;;1.75;1.75;;;;;23.15;53.81;100769.75;5096075;27;45655;-59
2021/06/28 04:00:38;;;;;;;;;1.00;1.00;;;;;23.16;53.70;100769.63;5096754;27;46177;-69
2021/06/28 04:03:06;;;;;;;;;1.00;1.00;;;;;23.16;53.54;100761.72;5097524;27;45352;-70
2021/06/28 04:05:31;;;;;;;;;4.50;2.00;;;;;23.15;53.35;100767.94;5097312;27;45299;-67
2021/06/28 04:07:56;;;;;;;;;2.00;2.00;;;;;23.17;53.31;100762.53;5097271;27;45616;-70
2021/06/28 04:10:23;;;;;;;;;2.00;2.00;;;;;23.16;53.56;100764.34;5096362;27;58686;-67
2021/06/28 04:12:51;;;;;;;;;2.25;2.25;;;;;23.16;53.58;100769.63;5097186;27;45827;-71
2021/06/28 04:15:17;;;;;;;;;2.75;2.75;;;;;23.16;53.61;100774.94;5097307;27;45460;-67
2021/06/28 04:17:47;;;;;;;;;1.00;1.00;;;;;23.14;53.06;100762.78;5097422;27;45330;-67
2021/06/28 04:20:15;;;;;;;;;2.00;2.00;;;;;23.16;53.55;100767.00;5097007;27;46714;-70
2021/06/28 04:22:42;;;;;;;;;2.00;2.00;;;;;23.14;53.25;100766.25;5096875;27;45676;-69
2021/06/28 04:25:10;;;;;;;;;1.25;1.25;;;;;23.13;53.37;100759.25;5096956;27;45455;-47
2021/06/28 04:27:35;;;;;;;;;2.00;2.00;;;;;23.15;53.42;100767.94;5096153;27;45509;-66
2021/06/28 04:30:04;;;;;;;;;2.75;2.75;;;;;23.16;53.30;100771.41;5096657;27;45342;-63
2021/06/28 04:32:29;;;;;;;;;2.50;2.50;;;;;23.15;53.48;100775.88;5096693;27;45830;-50
2021/06/28 04:34:57;;;;;;;;;2.50;1.75;;;;;23.14;53.41;100786.56;5096512;27;45435;-65
2021/06/28 04:37:23;;;;;;;;;2.00;2.00;;;;;23.13;53.24;100779.59;5096943;27;45428;-61
2021/06/28 04:39:48;;;;;;;;;3.00;3.00;;;;;23.12;53.41;100791.09;5094898;27;47140;-61
2021/06/28 04:42:13;;;;;;;;;2.00;2.00;;;;;23.11;53.64;100784.94;5096632;27;45335;-69
2021/06/28 04:44:39;;;;;;;;;3.00;2.00;;;;;23.10;53.44;100791.19;5096580;27;45345;-65
2021/06/28 04:47:04;;;;;;;;;2.25;2.00;;;;;23.09;53.59;100792.16;5096975;27;45332;-47
2021/06/28 04:49:29;;;;;;;;;2.75;2.75;;;;;23.08;53.33;100795.75;5096405;27;45164;-46
2021/06/28 04:51:55;;;;;;;;;1.75;1.75;;;;;23.09;53.43;100801.88;5096440;27;45820;-63
2021/06/28 04:54:20;;;;;;;;;2.00;2.00;;;;;23.09;53.33;100807.16;5095259;27;45427;-67
2021/06/28 04:56:45;;;;;;;;;2.00;2.00;;;;;23.09;53.43;100808.03;5096735;27;45324;-70
2021/06/28 04:59:11;;;;;;;;;1.00;1.00;;;;;23.08;53.53;100806.34;5096249;27;45219;-71
2021/06/28 05:01:36;;;;;;;;;2.00;2.00;;;;;23.05;53.71;100817.09;5096706;27;45177;-70
2021/06/28 05:04:02;;;;;;;;;2.00;2.00;;;;;23.07;53.57;100815.22;5129523;27;45208;-69
2021/06/28 05:06:27;;;;;;;;;0.00;0.00;;;;;23.08;53.50;100805.47;5096310;27;45473;-63
2021/06/28 05:08:52;;;;;;;;;1.50;1.50;;;;;23.09;53.13;100818.59;5096151;27;45192;-59
2021/06/28 05:11:18;;;;;;;;;2.00;2.00;;;;;23.09;53.47;100813.31;5097102;27;48338;-70
2021/06/28 05:13:43;;;;;;;;;2.00;2.00;;;;;23.09;53.25;100825.66;5099684;27;45257;-69
2021/06/28 05:16:09;;;;;;;;;2.00;1.00;;;;;23.10;53.40;100830.00;5100113;27;45839;-68
2021/06/28 05:18:34;;;;;;;;;1.50;1.50;;;;;23.09;53.41;100818.59;5099644;27;46060;-70
2021/06/28 05:21:00;;;;;;;;;1.50;1.50;;;;;23.10;53.31;100812.34;5099465;27;45397;-60
2021/06/28 05:23:25;;;;;;;;;3.25;3.25;;;;;23.10;53.59;100811.50;5132669;27;45484;-67
2021/06/28 05:25:50;;;;;;;;;2.00;2.00;;;;;23.08;53.25;100816.91;5099594;27;45500;-69
2021/06/28 05:28:16;;;;;;;;;2.25;1.50;;;;;23.09;53.28;100823.88;5099243;27;46074;-61
2021/06/28 05:30:41;;;;;;;;;2.00;2.00;;;;;23.08;53.32;100827.47;5099106;27;45376;-70
2021/06/28 05:33:07;;;;;;;;;3.50;3.50;;;;;23.08;53.33;100830.13;5099748;27;45394;-69
2021/06/28 05:35:32;;;;;;;;;2.00;2.00;;;;;23.08;53.58;100831.91;5099481;27;45374;-70
2021/06/28 05:37:58;;;;;;;;;1.75;1.00;;;;;23.09;53.36;100836.25;5098843;27;45722;-58
2021/06/28 05:40:23;;;;;;;;;2.00;2.00;;;;;23.08;53.40;100826.63;5099184;27;45405;-56
2021/06/28 05:42:48;;;;;;;;;1.25;1.00;;;;;23.09;53.38;100817.75;5099176;27;45433;-58
2021/06/28 05:45:14;;;;;;;;;1.75;1.75;;;;;23.07;53.34;100804.63;5099415;27;45477;-59
2021/06/28 05:47:39;;;;;;;;;1.75;1.75;;;;;23.07;53.33;100791.41;5097968;27;47071;-60
2021/06/28 05:50:09;;;;;;;;;2.00;2.00;;;;;23.07;53.34;100787.91;5098934;27;45312;-62
2021/06/28 05:52:34;;;;;;;;;1.75;1.75;;;;;23.05;53.22;100792.44;5132386;27;45300;-70
2021/06/28 05:55:00;;;;;;;;;3.50;2.00;;;;;23.05;53.10;100790.66;5099127;27;45445;-59
2021/06/28 05:57:26;;;;;;;;;2.00;2.00;;;;;23.07;53.14;100795.84;5131952;27;46011;-61
2021/06/28 05:59:54;;;;;;;;;2.00;2.00;;;;;23.03;53.29;100797.00;5098822;27;45467;-65
2021/06/28 06:02:20;;;;;;;;;3.00;2.00;;;;;23.08;53.01;100794.88;5098835;27;45316;-53
2021/06/28 06:04:46;;;;;;;;;5.00;2.00;;;;;23.06;53.14;100780.94;5099031;27;45295;-55
2021/06/28 06:07:12;;;;;;;;;2.75;2.25;;;;;23.07;53.09;100783.47;5099069;27;46276;-48
2021/06/28 06:09:38;;;;;;;;;3.00;2.00;;;;;23.06;53.13;100792.38;5099086;27;45249;-57
2021/06/28 06:12:04;;;;;;;;;1.00;1.00;;;;;23.06;53.25;100808.22;5098830;27;45282;-70
2021/06/28 06:14:30;;;;;;;;;2.00;2.00;;;;;23.06;53.25;100813.50;5098888;27;45370;-66
2021/06/28 06:16:55;;;;;;;;;1.25;1.25;;;;;23.06;53.38;100808.22;5098452;27;46179;-70
2021/06/28 06:19:20;;;;;;;;;2.00;2.00;;;;;23.07;53.40;100819.63;5098501;27;45444;-71
2021/06/28 06:21:46;;;;;;;;;1.75;1.75;;;;;23.07;53.23;100819.63;5098342;27;45235;-71
2021/06/28 06:24:12;;;;;;;;;1.00;1.00;;;;;23.08;53.27;100837.19;5099024;27;45363;-53
2021/06/28 06:26:37;;;;;;;;;2.00;2.00;;;;;23.07;53.10;100836.34;5098362;27;46121;-70
2021/06/28 06:29:03;;;;;;;;;4.25;1.50;;;;;23.06;53.00;100853.16;5097051;27;45810;-71
2021/06/28 06:31:29;;;;;;;;;1.50;1.50;;;;;23.07;53.41;100870.72;5098392;27;45278;-70
2021/06/28 06:33:54;;;;;;;;;2.25;2.25;;;;;23.08;53.26;100864.50;5098591;27;45319;-68
2021/06/28 06:36:19;;;;;;;;;2.00;2.00;;;;;23.08;53.33;100848.63;5098190;27;46257;-68
2021/06/28 06:38:45;;;;;;;;;2.00;2.00;;;;;23.08;53.35;100845.13;5098140;27;45271;-66
2021/06/28 06:41:10;;;;;;;;;3.50;3.00;;;;;23.08;53.40;100853.91;5098820;27;45346;-70
2021/06/28 06:43:36;;;;;;;;;2.00;2.00;;;;;23.07;53.29;100852.22;5098566;27;45248;-69
2021/06/28 06:46:02;;;;;;;;;3.50;3.00;;;;;23.08;53.16;100859.19;5097949;27;46328;-64
2021/06/28 06:48:28;;;;;;;;;2.25;2.25;;;;;23.09;53.20;100855.63;5098177;27;45740;-65
2021/06/28 06:50:53;;;;;;;;;2.00;2.00;;;;;23.10;53.07;100851.16;5097940;27;45296;-69
2021/06/28 06:53:18;;;;;;;;;3.50;2.00;;;;;23.06;52.91;100850.50;5096880;27;45286;-63
2021/06/28 06:55:45;;;;;;;;;1.00;1.00;;;;;23.09;53.12;100858.25;5098259;27;45462;-71
2021/06/28 06:58:10;;;;;;;;;2.00;2.00;;;;;23.09;53.09;100866.19;5098322;27;45262;-71
2021/06/28 07:00:39;;;;;;;;;2.00;2.00;;;;;23.09;53.22;100874.13;5096612;27;45306;-69
2021/06/28 07:03:04;;;;;;;;;2.00;2.00;;;;;23.08;53.08;100861.84;5098273;27;45504;-54
2021/06/28 07:05:30;;;;;;;;;1.00;1.00;;;;;23.09;53.13;100860.03;5097853;27;45271;-68
2021/06/28 07:07:55;;;;;;;;;2.00;2.00;;;;;23.09;53.19;100863.53;5097859;27;45618;-69
2021/06/28 07:10:21;;;;;;;;;2.50;2.00;;;;;23.08;52.58;100848.63;5097771;27;45397;-72
2021/06/28 07:12:46;;;;;;;;;2.50;2.50;;;;;23.08;52.80;100855.69;5097999;27;45523;-68
2021/06/28 07:15:14;;;;;;;;;2.00;2.00;;;;;23.09;53.07;100860.91;5131073;27;46179;-67
2021/06/28 07:17:41;;;;;;;;;2.25;2.25;;;;;23.09;53.05;100863.53;5097495;27;45687;-64
2021/06/28 07:20:09;;;;;;;;;2.25;2.25;;;;;23.11;53.04;100866.91;5097731;27;45353;-70
2021/06/28 07:22:35;;;;;;;;;2.75;2.75;;;;;23.12;53.26;100865.13;5097810;27;45271;-68
2021/06/28 07:25:00;;;;;;;;;2.00;2.00;;;;;23.14;53.00;100864.06;5097557;27;45239;-55
2021/06/28 07:27:26;;;;;;;;;2.00;2.00;;;;;23.17;52.94;100866.53;5097531;27;45626;-59
2021/06/28 07:29:52;;;;;;;;;2.50;2.00;;;;;23.20;52.71;100880.53;5097458;27;45322;-69
2021/06/28 07:32:17;;;;;;;;;2.00;2.00;;;;;23.21;52.98;100874.25;5096571;27;45308;-53
2021/06/28 07:34:42;;;;;;;;;2.75;2.75;;;;;23.22;52.85;100873.31;5095444;27;47174;-67
2021/06/28 07:37:08;;;;;;;;;2.50;2.50;;;;;23.25;52.91;100876.63;5097344;27;45325;-66
2021/06/28 07:39:33;;;;;;;;;2.25;2.25;;;;;23.26;52.65;100864.25;5097278;27;45354;-59
2021/06/28 07:41:59;;;;;;;;;2.00;2.00;;;;;23.28;53.12;100873.75;5097611;27;45455;-63
2021/06/28 07:44:25;;;;;;;;;3.00;3.00;;;;;23.29;52.88;100877.25;5097037;27;45456;-69
2021/06/28 07:46:51;;;;;;;;;2.00;2.00;;;;;23.31;52.71;100880.66;5097165;27;45834;-61
2021/06/28 07:49:17;;;;;;;;;2.00;2.00;;;;;23.32;52.57;100887.63;5113421;27;45385;-53
2021/06/28 07:51:42;;;;;;;;;2.00;2.00;;;;;23.33;52.89;100884.03;5097841;27;45455;-69
2021/06/28 07:54:09;;;;;;;;;4.00;2.25;;;;;23.33;52.38;100889.31;5096982;27;45928;-70
2021/06/28 07:56:35;;;;;;;;;3.00;2.50;;;;;23.35;52.63;100886.59;5096991;27;45697;-66
2021/06/28 07:59:02;;;;;;;;;5.75;3.00;;;;;23.37;52.31;100880.22;5097189;27;45442;-69
2021/06/28 08:01:31;;;;;;;;;1.00;1.00;;;;;23.38;52.77;100881.94;5097319;27;45610;-70
2021/06/28 08:03:56;;;;;;;;;2.50;2.50;;;;;23.37;52.84;100877.59;5096820;27;46592;-68
2021/06/28 08:06:22;;;;;;;;;2.75;1.50;;;;;23.37;52.50;100874.94;5096757;27;45366;-66
2021/06/28 08:08:50;;;;;;;;;2.00;2.00;;;;;23.39;52.57;100874.84;5095993;27;45387;-51
2021/06/28 08:11:18;;;;;;;;;2.00;1.75;;;;;23.39;52.76;100875.69;5097290;27;45256;-60
2021/06/28 08:13:46;;;;;;;;;2.00;2.00;;;;;23.39;52.42;100881.00;5097100;27;46739;-52
2021/06/28 08:16:13;;;;;;;;;3.00;3.00;;;;;23.40;52.63;100877.41;5096771;27;45707;-52
2021/06/28 08:18:39;;;;;;;;;5.00;3.25;;;;;23.42;52.50;100875.50;5097016;27;45345;-69
2021/06/28 08:21:05;;;;;;;;;2.00;2.00;;;;;23.44;52.60;100870.09;5096998;27;45607;-67
2021/06/28 08:23:31;;;;;;;;;2.75;2.75;;;;;23.44;52.33;100878.88;5095383;27;46901;-70
2021/06/28 08:25:57;;;;;;;;;4.00;4.00;;;;;23.45;52.41;100874.44;5096719;27;45378;-57
2021/06/28 08:28:23;;;;;;;;;2.25;2.25;;;;;23.44;52.39;100865.63;5096842;27;45234;-64
2021/06/28 08:30:48;;;;;;;;;2.50;2.00;;;;;23.47;52.43;100864.59;5097275;27;45361;-63
2021/06/28 08:33:14;;;;;;;;;2.00;2.00;;;;;23.47;52.09;100868.09;5097065;27;45229;-64
2021/06/28 08:35:41;;;;;;;;;3.00;3.00;;;;;23.50;52.05;100874.97;5096654;27;45522;-61
2021/06/28 08:38:07;;;;;;;;;3.25;2.00;;;;;23.49;52.14;100867.13;5095441;27;45364;-48
2021/06/28 08:40:33;;;;;;;;;6.25;3.50;;;;;23.50;52.15;100874.97;5096804;27;45352;-64
2021/06/28 08:42:58;;;;;;;;;5.25;2.00;;;;;23.47;52.17;100875.19;5112616;27;46476;-57
2021/06/28 08:45:24;;;;;;;;;2.00;2.00;;;;;23.46;52.15;100876.97;5096737;27;45465;-59
2021/06/28 08:47:50;;;;;;;;;2.00;2.00;;;;;23.47;51.95;100878.66;5100804;27;45299;-59
2021/06/28 08:50:15;;;;;;;;;3.00;3.00;;;;;23.46;52.31;100874.31;5099430;27;45275;-54
2021/06/28 08:52:43;;;;;;;;;2.50;2.00;;;;;23.41;52.25;100867.66;5098723;27;46628;-54
2021/06/28 08:55:11;;;;;;;;;3.00;3.00;;;;;23.44;52.23;100870.94;5100202;27;45982;-60
2021/06/28 08:57:36;;;;;;;;;2.00;2.00;;;;;23.47;52.29;100883.13;5100095;27;45385;-62
2021/06/28 09:00:08;;;;;;;;;2.50;2.50;;;;;23.47;52.13;100876.03;5100026;27;45366;-62
2021/06/28 09:02:33;;;;;;;;;2.00;2.00;;;;;23.47;51.98;100881.31;5099805;27;46222;-65
2021/06/28 09:05:01;;;;;;;;;3.00;3.00;;;;;23.45;52.17;100872.63;5099845;27;45275;-70
2021/06/28 09:07:26;;;;;;;;;2.75;2.75;;;;;23.47;52.01;100875.19;5100062;27;45370;-69
2021/06/28 09:09:52;;;;;;;;;3.00;3.00;;;;;23.40;52.16;100866.81;5099865;27;45394;-68
2021/06/28 09:12:18;;;;;;;;;2.00;2.00;;;;;23.47;51.89;100880.47;5099770;27;46259;-71
2021/06/28 09:14:55;;;;;;;;;3.75;1.50;;;;;23.46;51.90;100878.78;5099453;27;45405;-67
2021/06/28 09:17:29;;;;;;;;;2.00;2.00;;;;;23.45;51.76;100885.84;5099835;27;45267;-68
2021/06/28 09:20:21;;;;;;;;;2.50;2.50;;;;;23.44;51.67;100881.50;5099703;27;45473;-69
2021/06/28 09:22:48;;;;;;;;;2.75;2.00;;;;;23.43;51.73;100889.56;5099135;27;46448;-69
2021/06/28 09:25:32;;;;;;;;;1.75;1.75;;;;;23.44;51.64;100892.09;5099328;27;45625;-70
2021/06/28 09:27:57;;;;;;;;;2.75;2.75;;;;;23.46;52.17;100890.19;5099443;27;45357;-66
2021/06/28 09:30:23;;;;;;;;;2.50;2.00;;;;;23.47;51.76;100885.78;5099299;27;45448;-50
2021/06/28 09:32:55;;;;;;;;;3.00;3.00;;;;;23.48;51.41;100879.53;5099341;27;46179;-67
2021/06/28 09:35:32;;;;;;;;;1.50;1.50;;;;;23.50;51.63;100885.53;5132440;27;45697;-60
2021/06/28 09:38:22;;;;;;;;;3.25;3.25;;;;;23.50;51.71;100890.00;5099212;27;45805;-63
2021/06/28 09:40:47;;;;;;;;;2.00;2.00;;;;;23.51;51.22;100902.28;5094163;27;46779;-60
2021/06/28 09:43:24;;;;;;;;;3.00;2.25;;;;;23.49;50.98;100899.72;5098886;27;45196;-70
2021/06/28 09:45:54;;;;;;;;;2.50;1.75;;;;;23.50;50.53;100911.16;5099408;27;45830;-66
2021/06/28 09:48:28;;;;;;;;;2.00;2.00;;;;;23.49;50.78;100902.34;5099394;27;45345;-69
2021/06/28 09:51:28;;;;;;;;;4.75;3.00;;;;;23.47;50.68;100914.88;5097825;27;45590;-54
2021/06/28 09:54:07;;;;;;;;;3.00;2.25;;;;;23.47;50.79;100910.41;5097776;27;45977;-54
2021/06/28 09:56:53;;;;;;;;;2.00;2.00;;;;;23.46;50.46;100908.72;5098066;27;45725;-56
2021/06/28 09:59:32;;;;;;;;;3.00;2.00;;;;;23.47;50.55;100906.94;5099170;27;45834;-66
2021/06/28 10:02:26;;;;;;;;;2.00;2.00;;;;;23.48;50.63;100913.91;5099186;27;45239;-69
2021/06/28 10:05:10;;;;;;;;;3.50;2.00;;;;;23.47;50.78;100914.88;5098746;27;45569;-67
2021/06/28 10:07:38;;;;;;;;;3.00;3.00;;;;;23.46;50.24;100914.00;5098797;27;45332;-60
2021/06/28 10:10:16;;;;;;;;;3.00;2.00;;;;;23.48;50.08;100919.22;5098611;27;45346;-52
2021/06/28 10:12:45;;;;;;;;;2.25;2.25;;;;;23.47;50.53;100914.88;5098889;27;45320;-59
2021/06/28 10:15:16;;;;;;;;;1.25;1.25;;;;;23.47;50.27;100918.34;5097250;27;46195;-51
2021/06/28 10:17:43;;;;;;;;;3.25;2.50;;;;;23.47;50.60;100917.50;5098574;27;45669;-65
2021/06/28 10:20:12;;;;;;;;;1.75;1.75;;;;;23.47;50.48;100920.16;5098495;27;45369;-66
2021/06/28 10:22:39;;;;;;;;;2.50;2.50;;;;;23.46;50.33;100919.28;5098589;27;45254;-69
2021/06/28 10:25:06;;;;;;;;;2.00;2.00;;;;;23.49;50.58;100925.34;5098307;27;46341;-65
2021/06/28 10:27:34;;;;;;;;;1.25;1.25;;;;;23.50;50.30;100921.75;5098373;27;45816;-69
2021/06/28 10:30:00;;;;;;;;;2.50;2.50;;;;;23.49;50.13;100925.34;5098439;27;45298;-70
2021/06/28 10:32:29;;;;;;;;;2.75;2.00;;;;;23.50;50.48;100922.56;5098635;27;45250;-52
2021/06/28 10:34:55;;;;;;;;;2.00;2.00;;;;;23.51;50.35;100928.72;5098553;27;45406;-69
2021/06/28 10:37:35;;;;;;;;;3.00;3.00;;;;;23.50;50.31;100912.00;5132044;27;45492;-69
2021/06/28 10:40:18;;;;;;;;;2.75;2.75;;;;;23.51;50.32;100903.09;5098289;27;45547;-69
2021/06/28 10:42:52;;;;;;;;;1.75;1.75;;;;;23.51;50.03;100907.56;5098654;27;45425;-55
2021/06/28 10:45:37;;;;;;;;;4.75;2.00;;;;;23.52;50.43;100898.69;5130302;27;46524;-69
2021/06/28 10:48:18;;;;;;;;;4.00;3.00;;;;;23.51;50.67;100900.47;5097953;27;45396;-70
2021/06/28 10:50:47;;;;;;;;;2.25;2.25;;;;;23.51;50.00;100902.28;5096928;27;45430;-70
2021/06/28 10:53:12;;;;;;;;;1.00;1.00;;;;;23.49;50.25;100902.34;5098332;27;45309;-67
2021/06/28 10:55:39;;;;;;;;;2.00;1.50;;;;;23.50;50.08;100897.94;5097762;27;45337;-68
2021/06/28 10:58:22;;;;;;;;;2.50;2.50;;;;;23.49;50.11;100898.88;5098020;27;45802;-58
2021/06/28 11:01:06;;;;;;;;;2.00;2.00;;;;;23.47;50.28;100894.53;5098289;27;45286;-58
2021/06/28 11:03:33;;;;;;;;;3.00;3.00;;;;;23.47;50.06;100896.34;5098115;27;45348;-62
2021/06/28 11:06:19;;;;;;;;;3.25;1.50;;;;;23.49;49.71;100893.59;5097829;27;46255;-70
2021/06/28 11:09:05;;;;;;;;;2.50;2.50;;;;;23.48;49.71;100892.75;5096787;27;45272;-70
2021/06/28 11:11:54;;;;;;;;;4.25;3.00;;;;;23.50;49.63;100897.94;5097951;27;45200;-60
2021/06/28 11:14:19;;;;;;;;;2.00;2.00;;;;;23.51;49.63;100889.03;5098173;27;45373;-69
2021/06/28 11:17:12;;;;;;;;;1.33;1.33;;;;;23.51;49.89;100891.69;5097849;27;46205;-63
2021/06/28 11:19:51;;;;;;;;;1.75;1.75;;;;;23.51;49.50;100883.75;5079015;27;45575;-63
2021/06/28 11:22:41;;;;;;;;;1.00;1.00;;;;;23.52;49.51;100885.44;5097975;27;45347;-70
2021/06/28 11:25:11;;;;;;;;;2.50;2.50;;;;;23.53;49.36;100889.81;5098002;27;45755;-64
2021/06/28 11:27:41;;;;;;;;;3.00;1.00;;;;;23.52;49.75;100893.38;5097701;27;47059;-72